Time;durP1;ratioP1;P1;durP2;ratioP2;P2;SDS_P1;SDS_P2;PMS_P1;PMS_P2;Temp;Humidity;BMP_temperature;BMP_pressure;BME280_temperature;BME280_humidity;BME280_pressure;Samples;Min_cycle;Max_cycle;Signal;HPM_P1;HPM_P2
2021/03/16 00:00:55;;;;;;;7.50;1.83;;;3.90;99.90;;;;;;4956856;28;20033;-83
2021/03/16 00:03:21;;;;;;;7.10;2.40;;;3.90;99.90;;;;;;4949111;28;20031;-83
2021/03/16 00:05:46;;;;;;;6.83;2.07;;;3.90;99.90;;;;;;4958276;28;20032;-83
2021/03/16 00:08:12;;;;;;;5.40;1.70;;;4.00;99.90;;;;;;4956515;28;20400;-83
2021/03/16 00:10:38;;;;;;;7.10;1.70;;;4.00;99.90;;;;;;4953759;28;20028;-84
2021/03/16 00:13:04;;;;;;;7.50;1.80;;;3.90;99.90;;;;;;4956173;28;20480;-83
2021/03/16 00:15:29;;;;;;;4.37;1.87;;;4.00;99.90;;;;;;4956608;28;20400;-83
2021/03/16 00:17:55;;;;;;;6.43;1.70;;;4.00;99.90;;;;;;4964895;28;20026;-83
2021/03/16 00:20:20;;;;;;;6.53;1.70;;;3.90;99.90;;;;;;4957470;28;20031;-83
2021/03/16 00:22:46;;;;;;;7.27;1.70;;;4.00;99.90;;;;;;4958496;28;20023;-83
2021/03/16 00:25:13;;;;;;;8.23;1.83;;;3.90;99.90;;;;;;4958411;28;20504;-82
2021/03/16 00:27:39;;;;;;;7.37;2.17;;;3.90;99.90;;;;;;4958133;28;20031;-83
2021/03/16 00:30:07;;;;;;;6.30;1.90;;;3.90;99.90;;;;;;4958289;28;20027;-84
2021/03/16 00:32:32;;;;;;;5.43;1.60;;;3.90;99.90;;;;;;4958795;28;20031;-83
2021/03/16 00:34:58;;;;;;;8.40;1.80;;;4.00;99.90;;;;;;4969646;28;20054;-84
2021/03/16 00:37:24;;;;;;;6.57;1.90;;;3.90;99.90;;;;;;4971611;28;20114;-83
2021/03/16 00:39:51;;;;;;;5.23;1.73;;;3.90;99.90;;;;;;4963703;28;20026;-83
2021/03/16 00:42:17;;;;;;;8.00;1.90;;;3.90;99.90;;;;;;4957107;28;20392;-83
2021/03/16 00:44:42;;;;;;;6.50;1.70;;;4.00;99.90;;;;;;4956655;28;20027;-84
2021/03/16 00:47:08;;;;;;;10.57;1.80;;;3.90;99.90;;;;;;4956895;28;20039;-83
2021/03/16 00:49:33;;;;;;;7.23;2.30;;;3.90;99.90;;;;;;4958428;28;20035;-83
2021/03/16 00:51:59;;;;;;;7.47;1.97;;;3.90;99.90;;;;;;4965754;28;20023;-83
2021/03/16 00:54:25;;;;;;;6.90;1.83;;;3.80;99.90;;;;;;4964136;28;20086;-84
2021/03/16 00:56:50;;;;;;;6.93;1.93;;;3.80;99.90;;;;;;4970849;28;20270;-83
2021/03/16 00:59:16;;;;;;;6.87;1.40;;;3.80;99.90;;;;;;4964517;28;20105;-84
2021/03/16 01:01:42;;;;;;;6.53;2.00;;;3.80;99.90;;;;;;4973234;28;20019;-84
2021/03/16 01:04:07;;;;;;;6.47;1.27;;;3.80;99.90;;;;;;4972096;28;20038;-84
2021/03/16 01:06:33;;;;;;;9.40;1.70;;;3.80;99.90;;;;;;4969258;28;20090;-83
2021/03/16 01:08:58;;;;;;;7.77;1.97;;;3.90;99.90;;;;;;4959092;28;20039;-83
2021/03/16 01:11:24;;;;;;;5.00;1.60;;;3.90;99.90;;;;;;4974498;28;20039;-83
2021/03/16 01:13:50;;;;;;;9.47;1.80;;;3.90;99.90;;;;;;4950787;28;20156;-84
2021/03/16 01:16:15;;;;;;;6.57;1.30;;;3.90;99.90;;;;;;4967636;28;20477;-84
2021/03/16 01:18:41;;;;;;;8.83;1.60;;;3.90;99.90;;;;;;4958657;28;20060;-83
2021/03/16 01:21:08;;;;;;;7.20;1.73;;;3.80;99.90;;;;;;4964927;28;20033;-84
2021/03/16 01:23:35;;;;;;;7.23;1.70;;;3.80;99.90;;;;;;4951084;28;20035;-84
2021/03/16 01:26:01;;;;;;;8.37;1.60;;;3.70;99.90;;;;;;4961504;28;20082;-83
2021/03/16 01:28:26;;;;;;;10.30;1.50;;;3.70;99.90;;;;;;4958273;28;20034;-83
2021/03/16 01:30:52;;;;;;;9.07;1.43;;;3.70;99.90;;;;;;4954388;28;20470;-83
2021/03/16 01:33:17;;;;;;;5.27;1.57;;;3.60;99.90;;;;;;4957597;28;20134;-83
2021/03/16 01:35:43;;;;;;;9.37;1.50;;;3.70;99.90;;;;;;4957261;28;20027;-84
2021/03/16 01:38:08;;;;;;;5.27;1.30;;;3.70;99.90;;;;;;4958609;28;20582;-84
2021/03/16 01:40:37;;;;;;;6.17;1.40;;;3.70;99.90;;;;;;4969737;28;20015;-83
2021/03/16 01:43:24;;;;;;;6.83;1.93;;;3.70;99.90;;;;;;4966734;28;20151;-83
2021/03/16 01:45:51;;;;;;;5.23;1.27;;;3.70;99.90;;;;;;4953845;28;20114;-83
2021/03/16 01:48:24;;;;;;;10.10;2.23;;;3.70;99.90;;;;;;4967348;28;20046;-83
2021/03/16 01:50:50;;;;;;;8.50;1.80;;;3.70;99.90;;;;;;4957279;28;20093;-83
2021/03/16 01:53:17;;;;;;;7.20;2.03;;;3.70;99.90;;;;;;4957242;28;20098;-83
2021/03/16 01:55:43;;;;;;;6.63;1.70;;;3.70;99.90;;;;;;4961447;28;20051;-84
2021/03/16 01:58:09;;;;;;;6.17;1.80;;;3.60;99.90;;;;;;4952821;28;20023;-83
2021/03/16 02:00:38;;;;;;;8.40;2.47;;;3.60;99.90;;;;;;4965828;28;20033;-83
2021/03/16 02:03:04;;;;;;;10.20;2.10;;;3.60;99.90;;;;;;4966103;28;20046;-83
2021/03/16 02:05:30;;;;;;;5.53;1.90;;;3.60;99.90;;;;;;4958539;28;20027;-83
2021/03/16 02:08:28;;;;;;;9.13;2.30;;;3.60;99.90;;;;;;4958556;28;20701;-83
2021/03/16 02:11:12;;;;;;;9.93;1.77;;;3.60;99.90;;;;;;4954254;28;20023;-83
2021/03/16 02:13:41;;;;;;;7.37;1.90;;;3.60;99.90;;;;;;4967710;28;20051;-83
2021/03/16 02:16:17;;;;;;;10.57;1.90;;;3.60;99.90;;;;;;4968151;28;20027;-84
2021/03/16 02:18:49;;;;;;;5.30;1.70;;;3.50;99.90;;;;;;4969737;28;20019;-83
2021/03/16 02:21:22;;;;;;;9.50;2.45;;;3.50;99.90;;;;;;4971989;28;20023;-83
2021/03/16 02:24:08;;;;;;;5.87;1.97;;;3.50;99.90;;;;;;4961406;28;20027;-83
2021/03/16 02:26:40;;;;;;;6.67;2.03;;;3.50;99.90;;;;;;4954025;28;20035;-83
2021/03/16 02:29:25;;;;;;;6.13;2.08;;;3.60;99.90;;;;;;4951701;28;20431;-83
2021/03/16 02:31:55;;;;;;;7.40;2.03;;;3.50;99.90;;;;;;4963845;28;20038;-83
2021/03/16 02:34:22;;;;;;;12.30;2.10;;;3.50;99.90;;;;;;4958197;28;20043;-85
2021/03/16 02:36:49;;;;;;;7.17;1.87;;;3.50;99.90;;;;;;4961879;28;20031;-84
2021/03/16 02:39:16;;;;;;;7.97;2.80;;;3.50;99.90;;;;;;4964489;28;20038;-84
2021/03/16 02:41:51;;;;;;;8.40;2.27;;;3.40;99.90;;;;;;4964767;28;20035;-83
2021/03/16 02:44:17;;;;;;;10.00;2.30;;;3.40;99.90;;;;;;4959145;28;20034;-84
2021/03/16 02:46:47;;;;;;;6.50;1.90;;;3.50;99.90;;;;;;4953551;28;20027;-84
2021/03/16 02:49:14;;;;;;;9.83;2.30;;;3.50;99.90;;;;;;4954937;28;20023;-84
2021/03/16 02:51:40;;;;;;;6.33;1.97;;;3.50;99.90;;;;;;4956200;28;20117;-85
2021/03/16 02:54:07;;;;;;;10.13;2.27;;;3.40;99.90;;;;;;4954425;28;20035;-85
2021/03/16 02:56:34;;;;;;;5.63;1.70;;;3.40;99.90;;;;;;4955123;28;20086;-82
2021/03/16 02:59:03;;;;;;;8.83;1.67;;;3.40;99.90;;;;;;4952428;28;20030;-83
2021/03/16 03:01:34;;;;;;;4.00;1.73;;;3.40;99.90;;;;;;4960435;28;20043;-83
2021/03/16 03:04:01;;;;;;;6.43;2.23;;;3.40;99.90;;;;;;4956152;28;20032;-83
2021/03/16 03:06:28;;;;;;;7.60;1.87;;;3.40;99.90;;;;;;4954898;28;20023;-84
2021/03/16 03:08:54;;;;;;;6.47;1.83;;;3.40;99.90;;;;;;4955131;28;20128;-83
2021/03/16 03:11:20;;;;;;;8.83;2.20;;;3.40;99.90;;;;;;4956266;28;20102;-84
2021/03/16 03:13:45;;;;;;;9.10;2.10;;;3.30;99.90;;;;;;4955809;28;20038;-84
2021/03/16 03:16:11;;;;;;;7.57;2.37;;;3.40;99.90;;;;;;4958050;28;20053;-84
2021/03/16 03:18:36;;;;;;;9.63;2.37;;;3.30;99.90;;;;;;4958567;28;20031;-84
2021/03/16 03:21:13;;;;;;;6.90;1.90;;;3.30;99.90;;;;;;4960921;28;20098;-84
2021/03/16 03:23:48;;;;;;;6.33;1.80;;;3.30;99.90;;;;;;4963473;28;20098;-84
2021/03/16 03:26:16;;;;;;;6.63;1.50;;;3.20;99.90;;;;;;4958279;28;20064;-84
2021/03/16 03:28:44;;;;;;;9.57;1.90;;;3.30;99.90;;;;;;4962710;28;20027;-85
2021/03/16 03:31:11;;;;;;;10.50;2.77;;;3.30;99.90;;;;;;4952892;28;20027;-84
2021/03/16 03:33:40;;;;;;;7.27;2.00;;;3.30;99.90;;;;;;4958133;28;20499;-84
2021/03/16 03:36:06;;;;;;;5.67;1.50;;;3.30;99.90;;;;;;4959127;28;20075;-84
2021/03/16 03:38:33;;;;;;;6.23;2.00;;;3.20;99.90;;;;;;4958449;28;20504;-84
2021/03/16 03:41:01;;;;;;;8.20;2.27;;;3.20;99.90;;;;;;4958075;28;20046;-84
2021/03/16 03:43:29;;;;;;;8.67;1.97;;;3.20;99.90;;;;;;4955891;28;20051;-84
2021/03/16 03:45:56;;;;;;;8.00;1.90;;;3.20;99.90;;;;;;4956388;28;20024;-84
2021/03/16 03:48:23;;;;;;;8.43;2.03;;;3.20;99.90;;;;;;4960899;28;20992;-83
2021/03/16 03:50:51;;;;;;;7.50;1.60;;;3.10;99.90;;;;;;4962078;28;20038;-83
2021/03/16 03:53:18;;;;;;;6.83;1.83;;;3.10;99.90;;;;;;4956304;28;20034;-83
2021/03/16 03:55:45;;;;;;;9.73;2.20;;;3.10;99.90;;;;;;4958667;28;20094;-84
2021/03/16 03:58:11;;;;;;;8.63;2.00;;;3.10;99.90;;;;;;4975194;28;20095;-83
2021/03/16 04:00:38;;;;;;;5.63;1.60;;;3.10;99.90;;;;;;4971705;28;20027;-84
2021/03/16 04:03:05;;;;;;;7.97;1.50;;;3.10;99.90;;;;;;4974314;28;20027;-84
2021/03/16 04:05:31;;;;;;;8.57;1.73;;;3.10;99.90;;;;;;4977606;28;20019;-84
2021/03/16 04:07:58;;;;;;;8.53;1.60;;;3.10;99.90;;;;;;4970423;28;20028;-84
2021/03/16 04:10:24;;;;;;;6.97;1.37;;;3.10;99.90;;;;;;4956051;28;20097;-84
2021/03/16 04:12:52;;;;;;;8.80;1.50;;;3.20;99.90;;;;;;4956942;28;20040;-84
2021/03/16 04:15:18;;;;;;;6.97;1.50;;;3.20;99.90;;;;;;4966527;28;20037;-83
2021/03/16 04:17:46;;;;;;;8.63;1.70;;;3.20;99.90;;;;;;4963788;28;20083;-84
2021/03/16 04:20:16;;;;;;;8.27;1.47;;;3.20;99.90;;;;;;4960616;28;20115;-84
2021/03/16 04:22:42;;;;;;;5.87;1.20;;;3.20;99.90;;;;;;4962845;28;20042;-84
2021/03/16 04:25:09;;;;;;;6.70;1.30;;;3.20;99.90;;;;;;4964253;28;20111;-84
2021/03/16 04:27:35;;;;;;;6.73;1.50;;;3.20;99.90;;;;;;4964613;28;20058;-84
2021/03/16 04:30:00;;;;;;;8.77;1.70;;;3.20;99.90;;;;;;4960101;28;20060;-84
2021/03/16 04:32:26;;;;;;;10.00;1.83;;;3.20;99.90;;;;;;4961832;28;20033;-84
2021/03/16 04:34:52;;;;;;;8.90;1.50;;;3.20;99.90;;;;;;4960781;28;20171;-83
2021/03/16 04:37:18;;;;;;;8.33;1.50;;;3.10;99.90;;;;;;4960559;28;20034;-84
2021/03/16 04:39:44;;;;;;;6.67;1.10;;;3.10;99.90;;;;;;4964004;28;20031;-84
2021/03/16 04:42:09;;;;;;;7.20;1.30;;;3.10;99.90;;;;;;4960407;28;20028;-84
2021/03/16 04:44:35;;;;;;;10.57;1.67;;;3.00;99.90;;;;;;4967688;28;20053;-84
2021/03/16 04:47:01;;;;;;;5.40;1.30;;;3.00;99.90;;;;;;4962160;28;20027;-84
2021/03/16 04:49:27;;;;;;;10.67;1.70;;;3.00;99.90;;;;;;4961935;28;20037;-83
2021/03/16 04:51:52;;;;;;;7.20;1.23;;;3.00;99.90;;;;;;4969223;28;20031;-84
2021/03/16 04:54:18;;;;;;;9.10;1.40;;;3.00;99.90;;;;;;4958924;28;20039;-84
2021/03/16 04:56:44;;;;;;;4.87;1.30;;;3.00;99.90;;;;;;4973413;28;20030;-84
2021/03/16 04:59:09;;;;;;;7.03;1.20;;;3.00;99.90;;;;;;4969705;28;20027;-83
2021/03/16 05:01:35;;;;;;;8.00;1.57;;;3.00;99.90;;;;;;4959413;28;20023;-83
2021/03/16 05:04:01;;;;;;;7.83;1.13;;;3.00;99.90;;;;;;4963270;28;20062;-84
2021/03/16 05:06:27;;;;;;;7.33;1.13;;;3.00;99.90;;;;;;4963397;28;20039;-84
2021/03/16 05:08:52;;;;;;;5.53;1.20;;;3.00;99.90;;;;;;4965692;28;20086;-85
2021/03/16 05:11:18;;;;;;;6.23;1.40;;;2.90;99.90;;;;;;4965218;28;20062;-84
2021/03/16 05:13:44;;;;;;;7.67;1.10;;;3.00;99.90;;;;;;4963418;28;20369;-84
2021/03/16 05:16:10;;;;;;;5.00;1.30;;;2.90;99.90;;;;;;4963698;28;20028;-84
2021/03/16 05:18:36;;;;;;;9.00;1.40;;;2.90;99.90;;;;;;4960139;28;20090;-84
2021/03/16 05:21:02;;;;;;;7.17;1.10;;;2.90;99.90;;;;;;4961211;28;20027;-84
2021/03/16 05:23:27;;;;;;;6.80;1.30;;;2.90;99.90;;;;;;4964067;28;20509;-84
2021/03/16 05:25:53;;;;;;;10.47;1.30;;;2.90;99.90;;;;;;4967844;28;20098;-85
2021/03/16 05:28:19;;;;;;;9.67;1.20;;;2.90;99.90;;;;;;4968575;28;20042;-84
2021/03/16 05:30:44;;;;;;;6.63;1.23;;;3.00;99.90;;;;;;4968549;28;20023;-84
2021/03/16 05:33:10;;;;;;;5.50;1.40;;;3.00;99.90;;;;;;4969126;28;20135;-83
2021/03/16 05:35:35;;;;;;;5.77;1.43;;;3.00;99.90;;;;;;4979511;28;20043;-84
2021/03/16 05:38:01;;;;;;;4.77;1.00;;;3.00;99.90;;;;;;4972088;28;20039;-84
2021/03/16 05:40:29;;;;;;;8.70;1.33;;;3.00;99.90;;;;;;4972587;28;20027;-84
2021/03/16 05:42:57;;;;;;;10.23;1.70;;;3.00;99.90;;;;;;4970659;28;20027;-84
2021/03/16 05:45:23;;;;;;;4.53;1.10;;;3.00;99.90;;;;;;4967132;28;20492;-85
2021/03/16 05:47:51;;;;;;;8.80;1.50;;;3.10;99.90;;;;;;4974160;28;20054;-85
2021/03/16 05:50:17;;;;;;;11.63;1.50;;;3.10;99.90;;;;;;4973509;28;20111;-84
2021/03/16 05:52:44;;;;;;;6.47;1.57;;;3.10;99.90;;;;;;4971074;28;20038;-84
2021/03/16 05:55:10;;;;;;;9.33;1.67;;;3.10;99.90;;;;;;4972612;28;20070;-83
2021/03/16 05:57:35;;;;;;;9.33;1.67;;;3.10;99.90;;;;;;4960590;28;20417;-83
2021/03/16 06:00:06;;;;;;;7.07;1.40;;;3.10;99.90;;;;;;4965918;28;20019;-84
2021/03/16 06:02:32;;;;;;;7.77;2.17;;;3.10;99.90;;;;;;4963231;28;20393;-84
2021/03/16 06:04:59;;;;;;;8.43;1.40;;;3.10;99.90;;;;;;4964634;28;20027;-84
2021/03/16 06:07:25;;;;;;;9.43;1.40;;;3.10;99.90;;;;;;4959026;28;20087;-84
2021/03/16 06:09:51;;;;;;;6.10;1.23;;;3.20;99.90;;;;;;4964827;28;20027;-83
2021/03/16 06:12:30;;;;;;;10.90;1.93;;;3.20;99.90;;;;;;4964470;28;20050;-84
2021/03/16 06:14:56;;;;;;;7.63;1.77;;;3.20;99.90;;;;;;4955719;28;20023;-83
2021/03/16 06:17:22;;;;;;;12.10;1.50;;;3.20;99.90;;;;;;4966507;28;20023;-84
2021/03/16 06:19:47;;;;;;;11.73;1.33;;;3.20;99.90;;;;;;4962224;28;20015;-83
2021/03/16 06:22:18;;;;;;;5.87;1.37;;;3.20;99.90;;;;;;4962098;28;20031;-84
2021/03/16 06:24:45;;;;;;;9.37;1.53;;;3.30;99.90;;;;;;4959640;28;20101;-83
2021/03/16 06:27:25;;;;;;;10.17;1.53;;;3.30;99.90;;;;;;4957561;28;20027;-83
2021/03/16 06:29:51;;;;;;;6.60;1.67;;;3.30;99.90;;;;;;4953476;28;20075;-83
2021/03/16 06:32:17;;;;;;;6.20;1.40;;;3.30;99.90;;;;;;4956355;28;20030;-83
2021/03/16 06:34:43;;;;;;;8.17;1.40;;;3.30;99.90;;;;;;4962307;28;20054;-84
2021/03/16 06:37:09;;;;;;;5.97;1.50;;;3.40;99.90;;;;;;4966362;28;20029;-83
2021/03/16 06:39:43;;;;;;;9.03;2.03;;;3.30;99.90;;;;;;4954879;28;20026;-84
2021/03/16 06:42:20;;;;;;;10.30;1.90;;;3.30;99.90;;;;;;4948739;28;20023;-83
2021/03/16 06:44:45;;;;;;;10.13;1.87;;;3.40;99.90;;;;;;4956155;28;20404;-84
2021/03/16 06:47:15;;;;;;;6.40;1.87;;;3.40;99.90;;;;;;4957163;28;20031;-84
2021/03/16 06:49:40;;;;;;;11.70;1.80;;;3.40;99.90;;;;;;4954038;28;20027;-84
2021/03/16 06:52:11;;;;;;;6.03;1.80;;;3.40;99.90;;;;;;4956407;28;20043;-83
2021/03/16 06:54:36;;;;;;;9.50;1.90;;;3.40;99.90;;;;;;4957862;28;20527;-83
2021/03/16 06:57:02;;;;;;;7.40;1.83;;;3.50;99.90;;;;;;4958014;28;20137;-84
2021/03/16 06:59:30;;;;;;;8.97;1.80;;;3.50;99.90;;;;;;4956386;28;20030;-84
2021/03/16 07:01:56;;;;;;;10.17;1.70;;;3.50;99.90;;;;;;4957750;28;20019;-84
2021/03/16 07:04:29;;;;;;;8.37;2.20;;;3.50;99.90;;;;;;4956741;28;20109;-83
2021/03/16 07:06:54;;;;;;;10.90;1.90;;;3.50;99.90;;;;;;4943899;28;20023;-84
2021/03/16 07:09:20;;;;;;;4.37;1.63;;;3.50;99.90;;;;;;4953060;28;20031;-84
2021/03/16 07:11:51;;;;;;;6.73;1.90;;;3.60;99.90;;;;;;4953927;28;20437;-84
2021/03/16 07:14:19;;;;;;;9.83;1.70;;;3.50;99.90;;;;;;4955628;28;20517;-84
2021/03/16 07:16:46;;;;;;;7.50;1.63;;;3.50;99.90;;;;;;4954747;29;20023;-84
2021/03/16 07:19:13;;;;;;;8.10;1.87;;;3.50;99.90;;;;;;4954419;28;20015;-84
2021/03/16 07:21:51;;;;;;;9.60;1.70;;;3.50;99.90;;;;;;4953526;28;20032;-84
2021/03/16 07:24:26;;;;;;;5.40;1.30;;;3.40;99.90;;;;;;4956571;28;20082;-84
2021/03/16 07:26:55;;;;;;;10.53;1.70;;;3.40;99.90;;;;;;4959298;28;20050;-84
2021/03/16 07:29:21;;;;;;;9.33;2.03;;;3.40;99.90;;;;;;4961790;28;20027;-84
2021/03/16 07:31:49;;;;;;;8.07;1.93;;;3.40;99.90;;;;;;4965327;28;20063;-84
2021/03/16 07:34:19;;;;;;;8.10;2.13;;;3.40;99.90;;;;;;4972625;28;20686;-84
2021/03/16 07:36:48;;;;;;;8.57;2.03;;;3.30;99.90;;;;;;4969332;28;20015;-84
2021/03/16 07:39:18;;;;;;;9.30;2.00;;;3.30;99.90;;;;;;4969497;28;20107;-88
2021/03/16 07:41:45;;;;;;;11.97;2.23;;;3.20;99.90;;;;;;4970494;28;20041;-84
2021/03/16 07:44:13;;;;;;;9.63;2.27;;;3.10;99.90;;;;;;4959970;28;20399;-83
2021/03/16 07:46:51;;;;;;;8.17;2.37;;;3.10;99.90;;;;;;4952488;28;20085;-83
2021/03/16 07:49:30;;;;;;;6.27;1.90;;;3.00;99.90;;;;;;4949168;28;20039;-83
2021/03/16 07:51:56;;;;;;;14.57;1.70;;;3.10;99.90;;;;;;4957373;28;20027;-84
2021/03/16 07:54:22;;;;;;;7.93;2.00;;;3.10;99.90;;;;;;4952774;28;20087;-84
2021/03/16 07:56:59;;;;;;;8.17;2.00;;;3.10;99.90;;;;;;4954478;28;20058;-84
2021/03/16 07:59:32;;;;;;;10.73;1.90;;;3.20;99.90;;;;;;4952436;28;20118;-84
2021/03/16 08:01:58;;;;;;;10.37;2.13;;;3.30;99.90;;;;;;4956328;28;20098;-84
2021/03/16 08:04:39;;;;;;;10.40;2.87;;;3.50;99.90;;;;;;4953849;28;20069;-84
2021/03/16 08:07:06;;;;;;;8.77;1.50;;;3.70;99.90;;;;;;4953696;29;20042;-84
2021/03/16 08:09:45;;;;;;;10.10;2.23;;;3.90;99.90;;;;;;4958927;28;20039;-84
2021/03/16 08:12:28;;;;;;;9.73;2.00;;;4.00;99.90;;;;;;4953231;28;20063;-85
2021/03/16 08:14:55;;;;;;;10.33;1.70;;;4.10;99.90;;;;;;4945740;28;20507;-86
2021/03/16 08:17:29;;;;;;;10.27;1.93;;;4.20;99.90;;;;;;4936221;29;20512;-85
2021/03/16 08:19:55;;;;;;;8.93;2.00;;;4.30;99.90;;;;;;4953718;29;20094;-85
2021/03/16 08:22:24;;;;;;;8.97;2.00;;;4.40;99.90;;;;;;4953548;28;20370;-84
2021/03/16 08:25:06;;;;;;;9.63;2.20;;;4.40;99.90;;;;;;4949122;28;20687;-85
2021/03/16 08:27:35;;;;;;;8.93;1.83;;;4.40;99.90;;;;;;4953842;28;20023;-85
2021/03/16 08:30:08;;;;;;;11.13;2.00;;;4.40;99.90;;;;;;4958537;28;20090;-84
2021/03/16 08:32:35;;;;;;;8.47;2.00;;;4.50;99.90;;;;;;4956014;28;20034;-86
2021/03/16 08:35:00;;;;;;;11.83;2.20;;;4.50;99.90;;;;;;4956244;28;20023;-85
2021/03/16 08:37:28;;;;;;;6.77;2.00;;;4.50;99.90;;;;;;4954524;28;20037;-85
2021/03/16 08:39:55;;;;;;;10.33;2.40;;;4.50;99.90;;;;;;4954580;28;20106;-85
2021/03/16 08:42:22;;;;;;;8.27;1.50;;;4.50;99.90;;;;;;4952953;28;20066;-85
2021/03/16 08:44:48;;;;;;;10.83;2.20;;;4.40;99.90;;;;;;4949841;28;20031;-85
2021/03/16 08:47:20;;;;;;;9.50;2.37;;;4.40;99.90;;;;;;4951107;28;20104;-85
2021/03/16 08:49:50;;;;;;;11.93;2.03;;;4.50;99.90;;;;;;4929203;29;20122;-84
2021/03/16 08:52:32;;;;;;;9.47;2.10;;;4.50;99.90;;;;;;4955206;28;20396;-85
2021/03/16 08:55:00;;;;;;;10.18;1.90;;;4.50;99.90;;;;;;4947197;28;20102;-84
2021/03/16 08:57:25;;;;;;;7.77;1.87;;;4.60;99.90;;;;;;4950417;28;20509;-85
2021/03/16 08:59:54;;;;;;;11.73;2.00;;;4.70;99.90;;;;;;4952740;28;20180;-84
2021/03/16 09:02:25;;;;;;;9.53;2.10;;;4.80;99.90;;;;;;4952267;28;20035;-84
2021/03/16 09:04:51;;;;;;;12.98;1.83;;;4.80;99.90;;;;;;4967344;28;20034;-85
2021/03/16 09:07:28;;;;;;;10.33;3.30;;;4.90;99.90;;;;;;4961537;28;20024;-84
2021/03/16 09:10:08;;;;;;;8.73;2.40;;;4.90;99.90;;;;;;4967855;28;20091;-84
2021/03/16 09:12:41;;;;;;;15.70;2.57;;;5.00;99.90;;;;;;4963980;28;20374;-85
2021/03/16 09:15:07;;;;;;;8.30;1.67;;;4.90;99.90;;;;;;4965304;28;20024;-84
2021/03/16 09:17:39;;;;;;;9.27;1.87;;;4.90;99.90;;;;;;4962201;28;20441;-85
2021/03/16 09:20:19;;;;;;;9.83;2.33;;;4.80;99.90;;;;;;4950451;28;20365;-84
2021/03/16 09:22:53;;;;;;;9.03;2.27;;;4.80;99.90;;;;;;4952751;28;20031;-83
2021/03/16 09:25:24;;;;;;;8.80;2.17;;;4.80;99.90;;;;;;4953668;28;20433;-83
2021/03/16 09:27:50;;;;;;;9.20;2.20;;;4.70;99.90;;;;;;4955193;29;20669;-85
2021/03/16 09:30:18;;;;;;;10.43;2.10;;;4.70;99.90;;;;;;4962796;28;20065;-84
2021/03/16 09:32:45;;;;;;;9.93;2.10;;;4.70;99.90;;;;;;4962328;28;20027;-85
2021/03/16 09:35:14;;;;;;;10.07;2.43;;;4.60;99.90;;;;;;4952932;28;20511;-85
2021/03/16 09:37:44;;;;;;;9.33;2.13;;;4.40;99.90;;;;;;4954805;28;20046;-85
2021/03/16 09:40:11;;;;;;;9.70;3.07;;;4.20;99.90;;;;;;4953155;28;20016;-84
2021/03/16 09:42:40;;;;;;;11.07;2.87;;;4.20;99.90;;;;;;4952066;28;20599;-85
2021/03/16 09:45:14;;;;;;;10.60;3.00;;;4.20;99.90;;;;;;4950916;28;20074;-84
2021/03/16 09:47:40;;;;;;;7.37;2.80;;;4.20;99.90;;;;;;4943880;28;20023;-85
2021/03/16 09:50:09;;;;;;;13.30;2.57;;;4.20;99.90;;;;;;4953053;28;20038;-84
2021/03/16 09:52:35;;;;;;;11.43;3.60;;;4.20;99.90;;;;;;4957530;28;20058;-84
2021/03/16 09:55:01;;;;;;;7.60;2.10;;;4.10;99.90;;;;;;4951978;28;20078;-85
2021/03/16 09:57:33;;;;;;;10.40;2.57;;;4.10;99.90;;;;;;4955095;28;20063;-84
2021/03/16 10:00:00;;;;;;;8.90;2.50;;;4.20;99.90;;;;;;4955239;28;20090;-84
2021/03/16 10:02:37;;;;;;;11.13;3.10;;;4.30;99.90;;;;;;4955851;28;20051;-84
2021/03/16 10:05:06;;;;;;;12.83;2.70;;;4.50;99.90;;;;;;4954571;28;20543;-84
2021/03/16 10:07:33;;;;;;;11.03;3.27;;;4.50;99.90;;;;;;4958908;28;20031;-84
2021/03/16 10:10:16;;;;;;;10.00;2.57;;;4.60;99.90;;;;;;4959314;28;20593;-85
2021/03/16 10:12:55;;;;;;;10.63;2.97;;;4.70;99.90;;;;;;4953144;28;20027;-85
2021/03/16 10:15:24;;;;;;;14.43;2.80;;;4.70;99.90;;;;;;4949638;28;20508;-84
2021/03/16 10:17:50;;;;;;;9.77;2.60;;;4.70;99.90;;;;;;4941851;28;20452;-85
2021/03/16 10:20:21;;;;;;;9.17;2.60;;;4.60;99.90;;;;;;4953572;28;20031;-85
2021/03/16 10:22:59;;;;;;;11.65;2.83;;;4.40;99.90;;;;;;4951510;29;20015;-85
2021/03/16 10:25:29;;;;;;;8.13;2.80;;;4.30;99.90;;;;;;4946964;28;20046;-84
2021/03/16 10:28:13;;;;;;;14.07;3.00;;;4.40;99.90;;;;;;4951156;28;20078;-84
2021/03/16 10:30:42;;;;;;;9.87;2.80;;;4.50;99.90;;;;;;4955929;28;20031;-84
2021/03/16 10:33:12;;;;;;;14.93;3.07;;;4.50;99.90;;;;;;4959820;28;20038;-84
2021/03/16 10:35:43;;;;;;;12.03;3.80;;;4.50;99.90;;;;;;4958199;28;20027;-84
2021/03/16 10:38:09;;;;;;;11.70;3.60;;;4.70;99.90;;;;;;4949947;28;20042;-85
2021/03/16 10:40:44;;;;;;;11.40;2.87;;;4.80;99.90;;;;;;4950407;29;20420;-84
2021/03/16 10:43:10;;;;;;;13.33;2.90;;;4.80;99.90;;;;;;4962450;28;20039;-84
2021/03/16 10:45:36;;;;;;;11.13;3.63;;;4.90;99.90;;;;;;4949522;28;20058;-84
2021/03/16 10:48:02;;;;;;;11.80;3.47;;;5.00;99.90;;;;;;4945470;28;20019;-84
2021/03/16 10:50:28;;;;;;;10.30;3.07;;;5.10;99.90;;;;;;4947971;28;20055;-84
2021/03/16 10:52:53;;;;;;;10.60;3.23;;;5.10;99.90;;;;;;4931892;29;20027;-84
2021/03/16 10:55:19;;;;;;;12.93;3.50;;;5.20;99.90;;;;;;4948678;28;20031;-84
2021/03/16 10:57:45;;;;;;;11.40;3.00;;;5.40;99.90;;;;;;4948506;28;20029;-85
2021/03/16 11:00:12;;;;;;;10.40;2.93;;;5.40;99.90;;;;;;4949434;28;20680;-85
2021/03/16 11:02:38;;;;;;;13.00;3.23;;;5.50;99.90;;;;;;4950433;28;20023;-84
2021/03/16 11:05:07;;;;;;;8.57;2.80;;;5.50;99.90;;;;;;4947922;28;20034;-85
2021/03/16 11:07:33;;;;;;;13.13;3.13;;;5.40;99.90;;;;;;4949024;28;20042;-83
2021/03/16 11:09:59;;;;;;;9.77;2.90;;;5.30;99.90;;;;;;4949138;28;20027;-84
2021/03/16 11:12:24;;;;;;;8.20;3.20;;;5.30;99.90;;;;;;4950312;28;20031;-85
2021/03/16 11:14:50;;;;;;;12.40;3.03;;;5.40;99.90;;;;;;4947562;28;20027;-85
2021/03/16 11:17:15;;;;;;;12.73;3.20;;;5.30;99.90;;;;;;4948452;28;20102;-85
2021/03/16 11:19:41;;;;;;;9.30;3.40;;;5.40;99.90;;;;;;4953409;29;20391;-84
2021/03/16 11:22:07;;;;;;;7.80;2.97;;;5.40;99.90;;;;;;4949991;28;20677;-86
2021/03/16 11:24:34;;;;;;;11.20;3.77;;;5.50;99.90;;;;;;4950000;29;20042;-88
2021/03/16 11:27:01;;;;;;;9.37;3.50;;;5.60;99.90;;;;;;4947463;28;20039;-86
2021/03/16 11:29:27;;;;;;;9.13;3.03;;;5.60;99.90;;;;;;4950490;28;20032;-87
2021/03/16 11:31:52;;;;;;;10.83;3.00;;;5.60;99.90;;;;;;4949565;28;20057;-88
2021/03/16 11:34:18;;;;;;;12.00;3.00;;;5.60;99.90;;;;;;4945736;28;20058;-88
2021/03/16 11:36:44;;;;;;;9.37;2.80;;;5.60;99.90;;;;;;4947009;28;20086;-86
2021/03/16 11:39:10;;;;;;;11.67;2.87;;;5.60;99.90;;;;;;4942602;28;20081;-87
2021/03/16 11:41:36;;;;;;;10.07;2.70;;;5.50;99.90;;;;;;4947228;28;20028;-87
2021/03/16 11:44:02;;;;;;;10.77;2.60;;;5.60;99.90;;;;;;4950049;28;20035;-88
2021/03/16 11:46:28;;;;;;;6.70;2.30;;;5.50;99.90;;;;;;4949623;28;20046;-87
2021/03/16 11:48:53;;;;;;;11.07;2.87;;;5.40;99.90;;;;;;4951264;28;20027;-88
2021/03/16 11:51:19;;;;;;;13.00;3.00;;;5.40;99.90;;;;;;4946732;28;20027;-87
2021/03/16 11:53:45;;;;;;;9.80;2.87;;;5.30;99.90;;;;;;4950994;28;20181;-87
2021/03/16 11:56:10;;;;;;;10.50;2.10;;;5.20;99.90;;;;;;4951528;28;20792;-86
2021/03/16 11:58:36;;;;;;;8.17;2.80;;;5.10;99.90;;;;;;4952978;28;20540;-87
2021/03/16 12:01:02;;;;;;;9.47;2.37;;;5.10;99.90;;;;;;4951151;28;20029;-87
2021/03/16 12:03:29;;;;;;;12.40;2.50;;;5.00;99.90;;;;;;4952956;28;20071;-88
2021/03/16 12:05:54;;;;;;;11.33;2.40;;;5.00;99.90;;;;;;4951098;28;20122;-87
2021/03/16 12:08:20;;;;;;;7.00;2.33;;;5.00;99.90;;;;;;4950122;28;20121;-88
2021/03/16 12:10:46;;;;;;;8.37;2.27;;;5.00;99.90;;;;;;4948783;29;20051;-88
2021/03/16 12:13:12;;;;;;;7.30;2.10;;;5.10;99.90;;;;;;4951835;28;20114;-88
2021/03/16 12:15:38;;;;;;;7.60;1.97;;;5.20;99.90;;;;;;4957480;28;20046;-87
2021/03/16 12:18:04;;;;;;;10.60;2.43;;;5.30;99.90;;;;;;4962646;28;20030;-87
2021/03/16 12:20:29;;;;;;;7.87;2.13;;;5.50;99.90;;;;;;4951628;28;20075;-87
2021/03/16 12:22:56;;;;;;;9.50;2.37;;;5.50;99.90;;;;;;4947610;28;20477;-87
2021/03/16 12:25:22;;;;;;;7.60;2.17;;;5.60;99.90;;;;;;4942296;28;20076;-87
2021/03/16 12:27:48;;;;;;;9.03;2.30;;;5.80;99.90;;;;;;4954459;28;20043;-87
2021/03/16 12:30:14;;;;;;;7.13;2.03;;;5.90;99.90;;;;;;4954508;28;20106;-87
2021/03/16 12:32:39;;;;;;;7.33;2.03;;;6.10;99.90;;;;;;4953321;29;20031;-87
2021/03/16 12:35:10;;;;;;;10.67;3.10;;;6.30;99.90;;;;;;4955334;28;20498;-88
2021/03/16 12:37:37;;;;;;;9.40;2.07;;;6.30;99.90;;;;;;4956803;28;20031;-87
2021/03/16 12:40:04;;;;;;;8.17;2.10;;;6.30;99.90;;;;;;4955267;28;20110;-87
2021/03/16 12:42:31;;;;;;;7.23;2.40;;;6.40;99.90;;;;;;4954979;28;20039;-86
2021/03/16 12:44:57;;;;;;;6.90;2.07;;;6.50;99.90;;;;;;4961892;28;20032;-87
2021/03/16 12:47:23;;;;;;;6.63;2.30;;;6.60;99.90;;;;;;4955827;28;20419;-87
2021/03/16 12:49:49;;;;;;;7.73;1.70;;;6.60;99.90;;;;;;4952099;29;20023;-87
2021/03/16 12:52:15;;;;;;;8.27;1.80;;;6.50;99.90;;;;;;4965850;28;20039;-87
2021/03/16 12:54:41;;;;;;;12.50;2.33;;;6.50;99.90;;;;;;4955644;28;20040;-87
2021/03/16 12:57:07;;;;;;;8.60;2.00;;;6.50;99.90;;;;;;4954529;29;20027;-87
2021/03/16 12:59:32;;;;;;;8.60;2.23;;;6.50;99.90;;;;;;4952758;28;20123;-87